sensor_id;sensor_type;location;lat;lon;timestamp;P1;durP1;ratioP1;P2;durP2;ratioP2
21480;SDS011;10902;48.158;8.634;2022-09-29T00:01:27;12.07;;;7.78;;
21480;SDS011;10902;48.158;8.634;2022-09-29T00:03:53;11.82;;;8.48;;
21480;SDS011;10902;48.158;8.634;2022-09-29T00:06:18;10.40;;;7.57;;
21480;SDS011;10902;48.158;8.634;2022-09-29T00:08:44;10.48;;;7.90;;
21480;SDS011;10902;48.158;8.634;2022-09-29T00:11:11;13.40;;;8.68;;
21480;SDS011;10902;48.158;8.634;2022-09-29T00:13:39;12.40;;;8.30;;
21480;SDS011;10902;48.158;8.634;2022-09-29T00:16:05;14.45;;;9.07;;
21480;SDS011;10902;48.158;8.634;2022-09-29T00:18:31;13.32;;;8.75;;
21480;SDS011;10902;48.158;8.634;2022-09-29T00:21:02;11.55;;;8.40;;
21480;SDS011;10902;48.158;8.634;2022-09-29T00:23:36;15.77;;;9.98;;
21480;SDS011;10902;48.158;8.634;2022-09-29T00:26:04;14.98;;;10.25;;
21480;SDS011;10902;48.158;8.634;2022-09-29T00:28:44;15.32;;;9.93;;
21480;SDS011;10902;48.158;8.634;2022-09-29T00:31:16;14.45;;;9.80;;
21480;SDS011;10902;48.158;8.634;2022-09-29T00:33:42;16.98;;;10.52;;
21480;SDS011;10902;48.158;8.634;2022-09-29T00:36:11;17.02;;;10.30;;
21480;SDS011;10902;48.158;8.634;2022-09-29T00:38:39;14.98;;;10.63;;
21480;SDS011;10902;48.158;8.634;2022-09-29T00:41:05;14.50;;;10.18;;
21480;SDS011;10902;48.158;8.634;2022-09-29T00:46:49;15.70;;;10.20;;
21480;SDS011;10902;48.158;8.634;2022-09-29T00:52:03;17.70;;;11.05;;
21480;SDS011;10902;48.158;8.634;2022-09-29T00:54:44;14.63;;;10.13;;
21480;SDS011;10902;48.158;8.634;2022-09-29T00:57:13;17.05;;;11.38;;
21480;SDS011;10902;48.158;8.634;2022-09-29T00:59:46;23.00;;;12.15;;
21480;SDS011;10902;48.158;8.634;2022-09-29T01:02:18;17.05;;;10.75;;
21480;SDS011;10902;48.158;8.634;2022-09-29T01:04:49;15.75;;;10.98;;
21480;SDS011;10902;48.158;8.634;2022-09-29T01:07:18;14.57;;;10.15;;
21480;SDS011;10902;48.158;8.634;2022-09-29T01:09:49;19.88;;;10.45;;
21480;SDS011;10902;48.158;8.634;2022-09-29T01:12:18;17.60;;;12.18;;
21480;SDS011;10902;48.158;8.634;2022-09-29T01:14:44;18.65;;;11.23;;
21480;SDS011;10902;48.158;8.634;2022-09-29T01:17:11;18.13;;;11.45;;
21480;SDS011;10902;48.158;8.634;2022-09-29T01:28:03;17.35;;;11.55;;
21480;SDS011;10902;48.158;8.634;2022-09-29T01:34:05;23.10;;;12.50;;
21480;SDS011;10902;48.158;8.634;2022-09-29T01:39:28;20.50;;;13.07;;
21480;SDS011;10902;48.158;8.634;2022-09-29T01:42:05;23.63;;;12.85;;
21480;SDS011;10902;48.158;8.634;2022-09-29T01:44:55;20.35;;;12.27;;
21480;SDS011;10902;48.158;8.634;2022-09-29T01:48:01;16.95;;;11.35;;
21480;SDS011;10902;48.158;8.634;2022-09-29T01:50:54;15.57;;;10.52;;
21480;SDS011;10902;48.158;8.634;2022-09-29T01:53:17;21.65;;;12.55;;
21480;SDS011;10902;48.158;8.634;2022-09-29T01:55:48;19.27;;;12.23;;
21480;SDS011;10902;48.158;8.634;2022-09-29T01:58:21;19.83;;;12.68;;
21480;SDS011;10902;48.158;8.634;2022-09-29T02:01:01;18.48;;;11.38;;
21480;SDS011;10902;48.158;8.634;2022-09-29T02:03:31;19.90;;;13.27;;
21480;SDS011;10902;48.158;8.634;2022-09-29T02:06:02;20.95;;;12.50;;
21480;SDS011;10902;48.158;8.634;2022-09-29T02:11:13;23.55;;;14.02;;
21480;SDS011;10902;48.158;8.634;2022-09-29T02:16:17;21.88;;;13.32;;
21480;SDS011;10902;48.158;8.634;2022-09-29T02:18:48;23.00;;;14.63;;
21480;SDS011;10902;48.158;8.634;2022-09-29T02:21:20;22.25;;;14.43;;
21480;SDS011;10902;48.158;8.634;2022-09-29T02:23:47;24.05;;;14.25;;
21480;SDS011;10902;48.158;8.634;2022-09-29T02:26:13;21.85;;;13.55;;
21480;SDS011;10902;48.158;8.634;2022-09-29T02:28:40;20.15;;;12.93;;
21480;SDS011;10902;48.158;8.634;2022-09-29T02:31:06;25.70;;;15.38;;
21480;SDS011;10902;48.158;8.634;2022-09-29T02:33:32;23.02;;;13.20;;
21480;SDS011;10902;48.158;8.634;2022-09-29T02:36:05;23.02;;;14.02;;
21480;SDS011;10902;48.158;8.634;2022-09-29T02:38:42;19.17;;;12.30;;
21480;SDS011;10902;48.158;8.634;2022-09-29T02:55:19;20.50;;;12.77;;
21480;SDS011;10902;48.158;8.634;2022-09-29T02:58:17;27.05;;;15.15;;
21480;SDS011;10902;48.158;8.634;2022-09-29T03:00:49;23.40;;;13.95;;
21480;SDS011;10902;48.158;8.634;2022-09-29T03:03:17;28.00;;;14.38;;
21480;SDS011;10902;48.158;8.634;2022-09-29T04:11:47;21.33;;;12.38;;
21480;SDS011;10902;48.158;8.634;2022-09-29T04:14:36;22.00;;;12.65;;
21480;SDS011;10902;48.158;8.634;2022-09-29T05:47:10;21.60;;;13.63;;
21480;SDS011;10902;48.158;8.634;2022-09-29T05:49:36;25.33;;;13.93;;
21480;SDS011;10902;48.158;8.634;2022-09-29T05:52:07;18.92;;;12.13;;
21480;SDS011;10902;48.158;8.634;2022-09-29T05:54:35;23.85;;;14.05;;
21480;SDS011;10902;48.158;8.634;2022-09-29T05:57:03;21.20;;;13.23;;
21480;SDS011;10902;48.158;8.634;2022-09-29T05:59:29;19.30;;;12.88;;
21480;SDS011;10902;48.158;8.634;2022-09-29T06:01:58;24.63;;;14.05;;
21480;SDS011;10902;48.158;8.634;2022-09-29T06:04:41;24.30;;;14.60;;
21480;SDS011;10902;48.158;8.634;2022-09-29T06:07:10;26.15;;;15.48;;
21480;SDS011;10902;48.158;8.634;2022-09-29T06:09:41;28.85;;;16.17;;
21480;SDS011;10902;48.158;8.634;2022-09-29T06:12:36;24.38;;;14.82;;
21480;SDS011;10902;48.158;8.634;2022-09-29T06:15:04;31.60;;;16.40;;
21480;SDS011;10902;48.158;8.634;2022-09-29T06:17:39;26.33;;;15.32;;
21480;SDS011;10902;48.158;8.634;2022-09-29T06:20:05;25.27;;;15.82;;
21480;SDS011;10902;48.158;8.634;2022-09-29T06:22:38;21.50;;;14.52;;
21480;SDS011;10902;48.158;8.634;2022-09-29T06:25:04;23.13;;;15.40;;
21480;SDS011;10902;48.158;8.634;2022-09-29T06:28:00;25.00;;;15.65;;
21480;SDS011;10902;48.158;8.634;2022-09-29T06:30:28;18.17;;;13.05;;
21480;SDS011;10902;48.158;8.634;2022-09-29T06:33:19;20.77;;;13.52;;
21480;SDS011;10902;48.158;8.634;2022-09-29T06:36:03;22.63;;;14.88;;
21480;SDS011;10902;48.158;8.634;2022-09-29T06:39:00;24.23;;;14.80;;
21480;SDS011;10902;48.158;8.634;2022-09-29T06:41:36;21.02;;;13.48;;
21480;SDS011;10902;48.158;8.634;2022-09-29T07:05:04;18.13;;;13.55;;
21480;SDS011;10902;48.158;8.634;2022-09-29T07:07:50;15.65;;;12.20;;
21480;SDS011;10902;48.158;8.634;2022-09-29T07:10:39;13.90;;;10.30;;
21480;SDS011;10902;48.158;8.634;2022-09-29T07:13:07;16.30;;;10.40;;
21480;SDS011;10902;48.158;8.634;2022-09-29T07:15:38;15.60;;;11.15;;
21480;SDS011;10902;48.158;8.634;2022-09-29T07:18:03;14.13;;;10.20;;
21480;SDS011;10902;48.158;8.634;2022-09-29T07:20:30;13.15;;;9.18;;
21480;SDS011;10902;48.158;8.634;2022-09-29T07:22:56;13.77;;;9.82;;
21480;SDS011;10902;48.158;8.634;2022-09-29T07:25:22;13.27;;;9.55;;
21480;SDS011;10902;48.158;8.634;2022-09-29T07:27:48;13.13;;;9.40;;
21480;SDS011;10902;48.158;8.634;2022-09-29T07:30:15;12.18;;;9.15;;
21480;SDS011;10902;48.158;8.634;2022-09-29T07:32:41;12.18;;;9.30;;
21480;SDS011;10902;48.158;8.634;2022-09-29T07:35:07;13.00;;;9.13;;
21480;SDS011;10902;48.158;8.634;2022-09-29T07:37:33;11.60;;;8.88;;
21480;SDS011;10902;48.158;8.634;2022-09-29T07:39:58;11.48;;;8.50;;
21480;SDS011;10902;48.158;8.634;2022-09-29T07:42:26;10.88;;;8.15;;
21480;SDS011;10902;48.158;8.634;2022-09-29T07:44:52;11.75;;;8.38;;
21480;SDS011;10902;48.158;8.634;2022-09-29T07:47:18;11.75;;;8.10;;
21480;SDS011;10902;48.158;8.634;2022-09-29T07:49:43;12.00;;;7.95;;
21480;SDS011;10902;48.158;8.634;2022-09-29T07:52:09;9.85;;;6.90;;
21480;SDS011;10902;48.158;8.634;2022-09-29T07:54:36;11.75;;;7.22;;
21480;SDS011;10902;48.158;8.634;2022-09-29T07:57:02;10.25;;;7.18;;
21480;SDS011;10902;48.158;8.634;2022-09-29T07:59:28;9.45;;;7.00;;
21480;SDS011;10902;48.158;8.634;2022-09-29T08:01:54;10.00;;;7.88;;
21480;SDS011;10902;48.158;8.634;2022-09-29T08:04:20;9.52;;;6.90;;
21480;SDS011;10902;48.158;8.634;2022-09-29T08:06:45;9.50;;;7.20;;
21480;SDS011;10902;48.158;8.634;2022-09-29T08:09:11;10.02;;;6.65;;
21480;SDS011;10902;48.158;8.634;2022-09-29T08:11:38;9.80;;;6.38;;
21480;SDS011;10902;48.158;8.634;2022-09-29T08:14:06;9.30;;;6.65;;
21480;SDS011;10902;48.158;8.634;2022-09-29T08:16:33;9.65;;;7.25;;
21480;SDS011;10902;48.158;8.634;2022-09-29T08:18:59;10.60;;;7.40;;
21480;SDS011;10902;48.158;8.634;2022-09-29T08:21:25;8.38;;;5.97;;
21480;SDS011;10902;48.158;8.634;2022-09-29T08:23:52;8.15;;;6.43;;
21480;SDS011;10902;48.158;8.634;2022-09-29T08:26:19;9.93;;;6.70;;
21480;SDS011;10902;48.158;8.634;2022-09-29T08:28:46;11.15;;;7.40;;
21480;SDS011;10902;48.158;8.634;2022-09-29T08:31:16;9.60;;;6.75;;
21480;SDS011;10902;48.158;8.634;2022-09-29T08:33:47;11.10;;;6.93;;
21480;SDS011;10902;48.158;8.634;2022-09-29T08:36:19;10.00;;;7.72;;
21480;SDS011;10902;48.158;8.634;2022-09-29T08:38:49;11.00;;;7.13;;
21480;SDS011;10902;48.158;8.634;2022-09-29T08:47:11;9.40;;;6.72;;
21480;SDS011;10902;48.158;8.634;2022-09-29T08:49:54;9.63;;;6.75;;
21480;SDS011;10902;48.158;8.634;2022-09-29T08:52:34;9.55;;;6.50;;
21480;SDS011;10902;48.158;8.634;2022-09-29T08:57:42;8.98;;;5.93;;
21480;SDS011;10902;48.158;8.634;2022-09-29T09:00:10;8.70;;;6.32;;
21480;SDS011;10902;48.158;8.634;2022-09-29T09:08:00;9.40;;;5.80;;
21480;SDS011;10902;48.158;8.634;2022-09-29T09:10:40;9.00;;;5.70;;
21480;SDS011;10902;48.158;8.634;2022-09-29T09:18:18;11.35;;;5.65;;
21480;SDS011;10902;48.158;8.634;2022-09-29T09:24:01;8.07;;;5.43;;
21480;SDS011;10902;48.158;8.634;2022-09-29T09:26:31;7.90;;;5.15;;
21480;SDS011;10902;48.158;8.634;2022-09-29T09:29:00;7.30;;;4.57;;
21480;SDS011;10902;48.158;8.634;2022-09-29T09:31:32;8.60;;;4.88;;
21480;SDS011;10902;48.158;8.634;2022-09-29T09:34:00;8.02;;;4.95;;
21480;SDS011;10902;48.158;8.634;2022-09-29T09:36:54;8.70;;;4.50;;
21480;SDS011;10902;48.158;8.634;2022-09-29T09:41:52;8.32;;;4.75;;
21480;SDS011;10902;48.158;8.634;2022-09-29T09:44:23;7.70;;;4.60;;
21480;SDS011;10902;48.158;8.634;2022-09-29T09:46:58;6.97;;;4.00;;
21480;SDS011;10902;48.158;8.634;2022-09-29T09:49:36;6.78;;;3.72;;
21480;SDS011;10902;48.158;8.634;2022-09-29T09:52:11;7.03;;;3.88;;
21480;SDS011;10902;48.158;8.634;2022-09-29T09:54:44;5.97;;;3.63;;
21480;SDS011;10902;48.158;8.634;2022-09-29T10:00:07;6.85;;;3.85;;
21480;SDS011;10902;48.158;8.634;2022-09-29T10:02:45;6.43;;;3.33;;
21480;SDS011;10902;48.158;8.634;2022-09-29T10:05:14;6.00;;;3.63;;
21480;SDS011;10902;48.158;8.634;2022-09-29T10:07:41;7.22;;;3.20;;
21480;SDS011;10902;48.158;8.634;2022-09-29T10:10:16;7.47;;;3.05;;
21480;SDS011;10902;48.158;8.634;2022-09-29T10:12:44;5.75;;;2.97;;
21480;SDS011;10902;48.158;8.634;2022-09-29T10:15:55;6.18;;;3.10;;
21480;SDS011;10902;48.158;8.634;2022-09-29T10:18:02;5.30;;;3.20;;
21480;SDS011;10902;48.158;8.634;2022-09-29T10:20:36;5.85;;;3.00;;
21480;SDS011;10902;48.158;8.634;2022-09-29T10:28:37;4.80;;;2.92;;
21480;SDS011;10902;48.158;8.634;2022-09-29T10:33:55;5.18;;;2.53;;
21480;SDS011;10902;48.158;8.634;2022-09-29T10:36:30;4.72;;;2.75;;
21480;SDS011;10902;48.158;8.634;2022-09-29T10:38:57;5.13;;;2.78;;
21480;SDS011;10902;48.158;8.634;2022-09-29T10:41:23;4.00;;;2.20;;
21480;SDS011;10902;48.158;8.634;2022-09-29T10:43:49;3.83;;;2.10;;
21480;SDS011;10902;48.158;8.634;2022-09-29T10:46:35;6.05;;;2.10;;
21480;SDS011;10902;48.158;8.634;2022-09-29T10:49:17;4.35;;;2.17;;
21480;SDS011;10902;48.158;8.634;2022-09-29T10:54:22;4.50;;;2.20;;
21480;SDS011;10902;48.158;8.634;2022-09-29T10:56:52;4.40;;;1.95;;
21480;SDS011;10902;48.158;8.634;2022-09-29T10:59:20;3.67;;;1.80;;
21480;SDS011;10902;48.158;8.634;2022-09-29T11:01:57;4.40;;;2.10;;
21480;SDS011;10902;48.158;8.634;2022-09-29T11:04:31;3.80;;;1.67;;
21480;SDS011;10902;48.158;8.634;2022-09-29T11:07:09;4.03;;;1.60;;
21480;SDS011;10902;48.158;8.634;2022-09-29T11:09:40;5.53;;;1.58;;
21480;SDS011;10902;48.158;8.634;2022-09-29T11:12:49;3.20;;;1.40;;
21480;SDS011;10902;48.158;8.634;2022-09-29T11:14:59;4.15;;;1.30;;
21480;SDS011;10902;48.158;8.634;2022-09-29T11:17:26;4.15;;;1.63;;
21480;SDS011;10902;48.158;8.634;2022-09-29T11:20:02;3.75;;;1.48;;
21480;SDS011;10902;48.158;8.634;2022-09-29T11:25:07;3.80;;;1.50;;
21480;SDS011;10902;48.158;8.634;2022-09-29T11:39:02;3.20;;;1.13;;
21480;SDS011;10902;48.158;8.634;2022-09-29T12:00:18;3.30;;;1.17;;
21480;SDS011;10902;48.158;8.634;2022-09-29T12:08:26;2.92;;;1.13;;
21480;SDS011;10902;48.158;8.634;2022-09-29T12:11:08;3.30;;;1.15;;
21480;SDS011;10902;48.158;8.634;2022-09-29T12:16:16;3.17;;;0.98;;
21480;SDS011;10902;48.158;8.634;2022-09-29T12:18:46;1.90;;;0.70;;
21480;SDS011;10902;48.158;8.634;2022-09-29T12:21:13;1.90;;;0.77;;
21480;SDS011;10902;48.158;8.634;2022-09-29T12:23:53;2.80;;;0.75;;
21480;SDS011;10902;48.158;8.634;2022-09-29T12:26:22;2.03;;;0.70;;
21480;SDS011;10902;48.158;8.634;2022-09-29T12:28:53;2.30;;;0.60;;
21480;SDS011;10902;48.158;8.634;2022-09-29T12:31:36;1.52;;;0.50;;
21480;SDS011;10902;48.158;8.634;2022-09-29T12:34:14;1.95;;;0.60;;
21480;SDS011;10902;48.158;8.634;2022-09-29T12:39:58;3.78;;;0.70;;
21480;SDS011;10902;48.158;8.634;2022-09-29T12:42:43;1.65;;;0.50;;
21480;SDS011;10902;48.158;8.634;2022-09-29T12:45:34;2.58;;;0.60;;
21480;SDS011;10902;48.158;8.634;2022-09-29T12:54:02;2.08;;;0.52;;
21480;SDS011;10902;48.158;8.634;2022-09-29T12:56:33;2.00;;;0.55;;
21480;SDS011;10902;48.158;8.634;2022-09-29T13:07:36;1.80;;;0.52;;
21480;SDS011;10902;48.158;8.634;2022-09-29T13:18:09;1.13;;;0.38;;
21480;SDS011;10902;48.158;8.634;2022-09-29T13:26:53;3.15;;;0.70;;
21480;SDS011;10902;48.158;8.634;2022-09-29T13:29:26;1.75;;;0.77;;
21480;SDS011;10902;48.158;8.634;2022-09-29T13:31:55;2.63;;;1.00;;
21480;SDS011;10902;48.158;8.634;2022-09-29T13:34:27;2.60;;;0.82;;
21480;SDS011;10902;48.158;8.634;2022-09-29T13:37:11;1.77;;;0.68;;
21480;SDS011;10902;48.158;8.634;2022-09-29T13:45:16;1.95;;;0.57;;
21480;SDS011;10902;48.158;8.634;2022-09-29T13:50:44;1.73;;;0.68;;
21480;SDS011;10902;48.158;8.634;2022-09-29T13:55:48;4.18;;;1.25;;
21480;SDS011;10902;48.158;8.634;2022-09-29T13:58:23;3.28;;;1.38;;
21480;SDS011;10902;48.158;8.634;2022-09-29T14:00:54;3.75;;;1.48;;
21480;SDS011;10902;48.158;8.634;2022-09-29T14:03:23;3.22;;;1.25;;
21480;SDS011;10902;48.158;8.634;2022-09-29T14:06:11;5.22;;;2.08;;
21480;SDS011;10902;48.158;8.634;2022-09-29T14:08:50;5.93;;;2.40;;
21480;SDS011;10902;48.158;8.634;2022-09-29T14:11:36;3.80;;;1.70;;
21480;SDS011;10902;48.158;8.634;2022-09-29T14:14:06;3.75;;;1.70;;
21480;SDS011;10902;48.158;8.634;2022-09-29T14:17:02;6.35;;;1.88;;
21480;SDS011;10902;48.158;8.634;2022-09-29T14:25:46;5.90;;;3.00;;
21480;SDS011;10902;48.158;8.634;2022-09-29T14:35:28;4.55;;;2.35;;
21480;SDS011;10902;48.158;8.634;2022-09-29T14:43:24;4.60;;;2.20;;
21480;SDS011;10902;48.158;8.634;2022-09-29T14:46:18;4.90;;;2.20;;
21480;SDS011;10902;48.158;8.634;2022-09-29T14:52:29;3.88;;;1.75;;
21480;SDS011;10902;48.158;8.634;2022-09-29T14:55:11;3.90;;;1.80;;
21480;SDS011;10902;48.158;8.634;2022-09-29T15:01:03;5.55;;;2.33;;
21480;SDS011;10902;48.158;8.634;2022-09-29T15:03:45;4.53;;;2.30;;
21480;SDS011;10902;48.158;8.634;2022-09-29T15:06:19;6.78;;;2.72;;
21480;SDS011;10902;48.158;8.634;2022-09-29T15:09:00;5.63;;;2.42;;
21480;SDS011;10902;48.158;8.634;2022-09-29T15:11:36;5.32;;;2.40;;
21480;SDS011;10902;48.158;8.634;2022-09-29T15:14:26;4.05;;;1.90;;
21480;SDS011;10902;48.158;8.634;2022-09-29T15:27:54;3.58;;;1.35;;
21480;SDS011;10902;48.158;8.634;2022-09-29T15:30:23;2.63;;;1.02;;
21480;SDS011;10902;48.158;8.634;2022-09-29T15:32:51;3.60;;;1.40;;
21480;SDS011;10902;48.158;8.634;2022-09-29T15:35:22;2.90;;;1.35;;
21480;SDS011;10902;48.158;8.634;2022-09-29T15:40:16;4.47;;;2.30;;
21480;SDS011;10902;48.158;8.634;2022-09-29T15:42:44;3.05;;;1.00;;
21480;SDS011;10902;48.158;8.634;2022-09-29T15:45:14;3.25;;;1.00;;
21480;SDS011;10902;48.158;8.634;2022-09-29T15:47:42;3.10;;;1.50;;
21480;SDS011;10902;48.158;8.634;2022-09-29T15:50:18;22.33;;;12.60;;
21480;SDS011;10902;48.158;8.634;2022-09-29T15:52:45;14.93;;;9.00;;
21480;SDS011;10902;48.158;8.634;2022-09-29T15:55:12;4.82;;;2.25;;
21480;SDS011;10902;48.158;8.634;2022-09-29T15:57:46;5.55;;;1.75;;
21480;SDS011;10902;48.158;8.634;2022-09-29T16:03:15;5.88;;;2.72;;
21480;SDS011;10902;48.158;8.634;2022-09-29T16:09:03;6.95;;;4.03;;
21480;SDS011;10902;48.158;8.634;2022-09-29T16:11:32;7.65;;;4.15;;
21480;SDS011;10902;48.158;8.634;2022-09-29T16:16:28;8.68;;;5.43;;
21480;SDS011;10902;48.158;8.634;2022-09-29T16:21:56;7.07;;;4.38;;
21480;SDS011;10902;48.158;8.634;2022-09-29T16:24:29;5.60;;;3.20;;
21480;SDS011;10902;48.158;8.634;2022-09-29T16:26:56;6.97;;;3.08;;
21480;SDS011;10902;48.158;8.634;2022-09-29T16:35:23;6.10;;;3.92;;
21480;SDS011;10902;48.158;8.634;2022-09-29T16:38:09;5.07;;;3.13;;
21480;SDS011;10902;48.158;8.634;2022-09-29T16:40:52;4.80;;;2.58;;
21480;SDS011;10902;48.158;8.634;2022-09-29T16:45:50;4.15;;;2.10;;
21480;SDS011;10902;48.158;8.634;2022-09-29T16:48:17;5.15;;;2.45;;
21480;SDS011;10902;48.158;8.634;2022-09-29T16:50:47;4.15;;;2.22;;
21480;SDS011;10902;48.158;8.634;2022-09-29T16:53:21;4.18;;;2.30;;
21480;SDS011;10902;48.158;8.634;2022-09-29T16:56:00;5.85;;;1.80;;
21480;SDS011;10902;48.158;8.634;2022-09-29T16:58:44;4.15;;;1.70;;
21480;SDS011;10902;48.158;8.634;2022-09-29T17:01:26;3.38;;;1.50;;
21480;SDS011;10902;48.158;8.634;2022-09-29T17:03:52;3.60;;;1.80;;
21480;SDS011;10902;48.158;8.634;2022-09-29T17:06:17;3.97;;;2.10;;
21480;SDS011;10902;48.158;8.634;2022-09-29T17:08:43;5.05;;;2.60;;
21480;SDS011;10902;48.158;8.634;2022-09-29T17:11:08;9.10;;;5.15;;
21480;SDS011;10902;48.158;8.634;2022-09-29T17:13:34;7.90;;;5.30;;
21480;SDS011;10902;48.158;8.634;2022-09-29T17:16:00;6.95;;;3.95;;
21480;SDS011;10902;48.158;8.634;2022-09-29T17:18:26;5.53;;;3.20;;
21480;SDS011;10902;48.158;8.634;2022-09-29T17:20:53;5.78;;;3.13;;
21480;SDS011;10902;48.158;8.634;2022-09-29T17:23:19;5.80;;;3.35;;
21480;SDS011;10902;48.158;8.634;2022-09-29T17:25:45;5.68;;;3.40;;
21480;SDS011;10902;48.158;8.634;2022-09-29T17:28:16;5.93;;;2.72;;
21480;SDS011;10902;48.158;8.634;2022-09-29T17:30:45;7.07;;;4.28;;
21480;SDS011;10902;48.158;8.634;2022-09-29T17:33:12;6.80;;;4.13;;
21480;SDS011;10902;48.158;8.634;2022-09-29T17:35:41;5.95;;;4.07;;
21480;SDS011;10902;48.158;8.634;2022-09-29T17:38:12;4.78;;;3.00;;
21480;SDS011;10902;48.158;8.634;2022-09-29T17:40:47;5.85;;;3.50;;
21480;SDS011;10902;48.158;8.634;2022-09-29T17:43:15;7.07;;;3.83;;
21480;SDS011;10902;48.158;8.634;2022-09-29T17:45:42;8.40;;;4.97;;
21480;SDS011;10902;48.158;8.634;2022-09-29T17:48:08;8.00;;;5.32;;
21480;SDS011;10902;48.158;8.634;2022-09-29T17:53:34;9.23;;;6.43;;
21480;SDS011;10902;48.158;8.634;2022-09-29T17:55:59;10.30;;;6.65;;
21480;SDS011;10902;48.158;8.634;2022-09-29T17:58:26;10.20;;;6.53;;
21480;SDS011;10902;48.158;8.634;2022-09-29T18:00:54;11.20;;;7.78;;
21480;SDS011;10902;48.158;8.634;2022-09-29T18:03:23;11.30;;;7.95;;
21480;SDS011;10902;48.158;8.634;2022-09-29T18:05:53;11.05;;;7.43;;
21480;SDS011;10902;48.158;8.634;2022-09-29T18:08:21;8.65;;;6.90;;
21480;SDS011;10902;48.158;8.634;2022-09-29T18:10:49;11.70;;;8.00;;
21480;SDS011;10902;48.158;8.634;2022-09-29T18:13:23;10.90;;;7.00;;
21480;SDS011;10902;48.158;8.634;2022-09-29T18:15:51;11.95;;;6.78;;
21480;SDS011;10902;48.158;8.634;2022-09-29T18:18:18;16.83;;;9.10;;
21480;SDS011;10902;48.158;8.634;2022-09-29T18:20:46;9.32;;;4.75;;
21480;SDS011;10902;48.158;8.634;2022-09-29T18:23:14;67.60;;;28.02;;
21480;SDS011;10902;48.158;8.634;2022-09-29T18:25:40;11.63;;;5.85;;
21480;SDS011;10902;48.158;8.634;2022-09-29T18:28:10;6.47;;;3.63;;
21480;SDS011;10902;48.158;8.634;2022-09-29T18:30:39;7.82;;;4.22;;
21480;SDS011;10902;48.158;8.634;2022-09-29T18:33:09;6.13;;;3.10;;
21480;SDS011;10902;48.158;8.634;2022-09-29T18:35:37;5.13;;;3.25;;
21480;SDS011;10902;48.158;8.634;2022-09-29T18:38:05;5.55;;;3.20;;
21480;SDS011;10902;48.158;8.634;2022-09-29T18:40:32;6.30;;;3.58;;
21480;SDS011;10902;48.158;8.634;2022-09-29T18:42:58;6.53;;;3.80;;
21480;SDS011;10902;48.158;8.634;2022-09-29T18:45:26;5.88;;;3.78;;
21480;SDS011;10902;48.158;8.634;2022-09-29T18:47:54;5.63;;;3.72;;
21480;SDS011;10902;48.158;8.634;2022-09-29T18:50:25;6.30;;;3.17;;
21480;SDS011;10902;48.158;8.634;2022-09-29T18:52:52;8.35;;;4.40;;
21480;SDS011;10902;48.158;8.634;2022-09-29T18:55:19;6.50;;;4.18;;
21480;SDS011;10902;48.158;8.634;2022-09-29T18:57:48;6.38;;;4.60;;
21480;SDS011;10902;48.158;8.634;2022-09-29T19:00:15;6.07;;;3.88;;
21480;SDS011;10902;48.158;8.634;2022-09-29T19:02:43;7.05;;;4.20;;
21480;SDS011;10902;48.158;8.634;2022-09-29T19:05:11;6.38;;;3.97;;
21480;SDS011;10902;48.158;8.634;2022-09-29T19:07:43;7.70;;;5.03;;
21480;SDS011;10902;48.158;8.634;2022-09-29T19:10:09;6.68;;;4.35;;
21480;SDS011;10902;48.158;8.634;2022-09-29T19:12:35;7.82;;;4.55;;
21480;SDS011;10902;48.158;8.634;2022-09-29T19:15:01;7.10;;;4.18;;
21480;SDS011;10902;48.158;8.634;2022-09-29T19:17:28;7.07;;;4.82;;
21480;SDS011;10902;48.158;8.634;2022-09-29T19:19:55;10.35;;;7.03;;
21480;SDS011;10902;48.158;8.634;2022-09-29T19:22:21;8.32;;;6.40;;
21480;SDS011;10902;48.158;8.634;2022-09-29T19:24:49;8.40;;;5.68;;
21480;SDS011;10902;48.158;8.634;2022-09-29T19:27:15;7.43;;;5.65;;
21480;SDS011;10902;48.158;8.634;2022-09-29T19:29:41;9.07;;;6.68;;
21480;SDS011;10902;48.158;8.634;2022-09-29T19:32:06;8.85;;;6.25;;
21480;SDS011;10902;48.158;8.634;2022-09-29T19:34:32;10.70;;;7.80;;
21480;SDS011;10902;48.158;8.634;2022-09-29T19:36:58;8.63;;;6.63;;
21480;SDS011;10902;48.158;8.634;2022-09-29T19:39:24;8.80;;;5.80;;
21480;SDS011;10902;48.158;8.634;2022-09-29T19:41:52;8.63;;;5.70;;
21480;SDS011;10902;48.158;8.634;2022-09-29T19:44:18;10.77;;;7.68;;
21480;SDS011;10902;48.158;8.634;2022-09-29T19:46:47;11.75;;;8.52;;
21480;SDS011;10902;48.158;8.634;2022-09-29T19:49:13;13.13;;;9.55;;
21480;SDS011;10902;48.158;8.634;2022-09-29T19:51:39;11.40;;;7.47;;
21480;SDS011;10902;48.158;8.634;2022-09-29T19:54:14;8.40;;;6.25;;
21480;SDS011;10902;48.158;8.634;2022-09-29T19:56:46;6.90;;;4.85;;
21480;SDS011;10902;48.158;8.634;2022-09-29T19:59:14;5.88;;;4.13;;
21480;SDS011;10902;48.158;8.634;2022-09-29T20:01:42;6.72;;;3.40;;
21480;SDS011;10902;48.158;8.634;2022-09-29T20:04:09;5.90;;;3.30;;
21480;SDS011;10902;48.158;8.634;2022-09-29T20:06:36;6.35;;;3.40;;
21480;SDS011;10902;48.158;8.634;2022-09-29T20:09:03;4.97;;;3.15;;
21480;SDS011;10902;48.158;8.634;2022-09-29T20:11:30;6.28;;;3.28;;
21480;SDS011;10902;48.158;8.634;2022-09-29T20:13:57;5.20;;;3.50;;
21480;SDS011;10902;48.158;8.634;2022-09-29T20:16:28;6.07;;;3.75;;
21480;SDS011;10902;48.158;8.634;2022-09-29T20:19:02;5.93;;;3.88;;
21480;SDS011;10902;48.158;8.634;2022-09-29T20:21:29;7.78;;;4.28;;
21480;SDS011;10902;48.158;8.634;2022-09-29T20:23:55;8.35;;;5.00;;
21480;SDS011;10902;48.158;8.634;2022-09-29T20:26:25;8.57;;;6.60;;
21480;SDS011;10902;48.158;8.634;2022-09-29T20:28:51;12.20;;;8.88;;
21480;SDS011;10902;48.158;8.634;2022-09-29T20:31:21;9.23;;;6.93;;
21480;SDS011;10902;48.158;8.634;2022-09-29T20:33:47;9.90;;;7.65;;
21480;SDS011;10902;48.158;8.634;2022-09-29T20:36:14;9.48;;;6.47;;
21480;SDS011;10902;48.158;8.634;2022-09-29T20:38:41;8.60;;;5.68;;
21480;SDS011;10902;48.158;8.634;2022-09-29T20:41:08;9.55;;;7.25;;
21480;SDS011;10902;48.158;8.634;2022-09-29T20:43:37;9.77;;;6.68;;
21480;SDS011;10902;48.158;8.634;2022-09-29T20:46:03;8.95;;;7.03;;
21480;SDS011;10902;48.158;8.634;2022-09-29T20:48:31;8.95;;;6.30;;
21480;SDS011;10902;48.158;8.634;2022-09-29T20:50:58;10.55;;;7.18;;
21480;SDS011;10902;48.158;8.634;2022-09-29T20:53:25;13.00;;;8.07;;
21480;SDS011;10902;48.158;8.634;2022-09-29T20:56:04;20.30;;;13.45;;
21480;SDS011;10902;48.158;8.634;2022-09-29T20:58:32;15.63;;;10.52;;
21480;SDS011;10902;48.158;8.634;2022-09-29T21:06:24;11.15;;;7.97;;
21480;SDS011;10902;48.158;8.634;2022-09-29T21:08:54;12.15;;;9.20;;
21480;SDS011;10902;48.158;8.634;2022-09-29T21:11:21;12.45;;;8.18;;
21480;SDS011;10902;48.158;8.634;2022-09-29T21:13:47;9.70;;;6.85;;
21480;SDS011;10902;48.158;8.634;2022-09-29T21:16:15;8.65;;;6.60;;
21480;SDS011;10902;48.158;8.634;2022-09-29T21:18:40;11.38;;;8.40;;
21480;SDS011;10902;48.158;8.634;2022-09-29T21:21:06;10.43;;;8.88;;
21480;SDS011;10902;48.158;8.634;2022-09-29T21:23:32;9.23;;;7.57;;
21480;SDS011;10902;48.158;8.634;2022-09-29T21:26:03;11.07;;;8.43;;
21480;SDS011;10902;48.158;8.634;2022-09-29T21:28:30;9.75;;;7.63;;
21480;SDS011;10902;48.158;8.634;2022-09-29T21:31:00;9.65;;;7.68;;
21480;SDS011;10902;48.158;8.634;2022-09-29T21:33:27;8.43;;;6.68;;
21480;SDS011;10902;48.158;8.634;2022-09-29T21:35:55;9.18;;;7.25;;
21480;SDS011;10902;48.158;8.634;2022-09-29T21:38:21;7.82;;;6.38;;
21480;SDS011;10902;48.158;8.634;2022-09-29T21:40:47;8.80;;;6.70;;
21480;SDS011;10902;48.158;8.634;2022-09-29T21:43:12;9.30;;;7.05;;
21480;SDS011;10902;48.158;8.634;2022-09-29T21:45:38;10.27;;;7.43;;
21480;SDS011;10902;48.158;8.634;2022-09-29T21:48:03;9.70;;;6.80;;
21480;SDS011;10902;48.158;8.634;2022-09-29T21:50:31;8.27;;;6.50;;